Terminal Aerodrome Forecast
Issued by NWS Wilmington, NC

Home | Current Version | Previous Version | Text Only | Print | Product List | Glossary On
Versions: 1 2 3 4 5 6 7 8 9 10 11 12 13
000
FTUS42 KILM 221100
TAFLBT
TAF
KLBT 221130Z 2212/2312 36008KT 6SM BR VCSH OVC007
      TEMPO 2212/2214 1SM +RA BR OVC005
     FM222000 36005KT P6SM OVC010
     FM222300 03004KT 3SM BR SCT005 OVC008
     FM230800 VRB03KT 2SM BR OVC004=

USA.gov is the U.S. government's official web portal to all federal, state and local government web resources and services.